메인 페이지
METAR-TAF:

METAR-TAF

공항 :

Pratt Industrial Airport

프랫, 캔자스, 미국

위도: 37-42N, 경도: 098-45W, 고도: 595m

현재 날씨관측

예보는 30분 전, 01:35시(UTC)에 발표되었습니다.
남남동9kt
온도 24°C
습도 57%
기압 1010 hPa
시정: 16.1km
맑음

METAR: KPTT 250135Z AUTO 16009KT 10SM CLR 24/15 A2982 RMK AO2 T02360152

시각: 21:05 (02:05 UTC)


TAF: 누락

4,000개 이상의 공항 관측 자료 및 예보 (METAR 및 TAF 보고).

지도상에서 검색 가능한 기상관측소가 노란 점과 빨간 점으로 표시되어 있습니다.

기상관측소 명을 보려면 표시 위로 마우스를 이동하세요.

날씨 관측과 예보를 보려면 클릭하세요.

지도 변경 : 확대하려면 엑스 표시가 있는 녹색 버튼, 축소하려면 빼기 표시가 있는 녹색 버튼, 다음 페이지의 지도를 보려면 녹색 화살표를 클릭하세요.


METAR-TAF: